createdAt,value
2023-05-05T00:02:09.348Z,76.45
2023-05-05T00:04:38.081Z,76.60
2023-05-05T00:07:06.467Z,76.95
2023-05-05T00:09:34.737Z,77.30
2023-05-05T00:12:03.108Z,78.18
2023-05-05T00:14:31.693Z,77.95
2023-05-05T00:17:00.237Z,78.04
2023-05-05T00:19:28.548Z,78.40
2023-05-05T00:21:56.832Z,77.81
2023-05-05T00:24:25.409Z,78.57
2023-05-05T00:26:53.888Z,78.14
2023-05-05T00:29:22.374Z,78.06
2023-05-05T00:31:53.016Z,77.89
2023-05-05T00:34:21.490Z,77.54
2023-05-05T00:36:49.861Z,77.94
2023-05-05T00:39:18.339Z,77.90
2023-05-05T00:41:46.822Z,78.07
2023-05-05T00:44:15.308Z,77.68
2023-05-05T00:46:44.068Z,78.15
2023-05-05T00:49:13.035Z,78.33
2023-05-05T00:51:42.486Z,79.01
2023-05-05T00:54:10.962Z,79.55
2023-05-05T00:56:39.449Z,79.10
2023-05-05T00:59:07.726Z,80.63
2023-05-05T01:01:36.446Z,80.38
2023-05-05T01:04:04.963Z,80.67
2023-05-05T01:06:48.925Z,80.69
2023-05-05T01:09:51.909Z,80.64
2023-05-05T01:12:41.604Z,80.52
2023-05-05T01:15:33.420Z,80.31
2023-05-05T01:18:20.122Z,80.27
2023-05-05T01:21:23.641Z,80.12
2023-05-05T01:24:01.014Z,80.43
2023-05-05T01:27:06.052Z,80.76
2023-05-05T01:29:55.313Z,80.53
2023-05-05T01:32:32.113Z,80.92
2023-05-05T01:35:17.370Z,81.96
2023-05-05T01:37:59.467Z,81.04
2023-05-05T01:40:32.200Z,80.87
2023-05-05T01:43:03.904Z,81.34
2023-05-05T01:45:35.896Z,81.38
2023-05-05T01:48:06.994Z,81.42
2023-05-05T01:50:37.429Z,80.91
2023-05-05T01:53:07.755Z,81.43
2023-05-05T01:55:37.749Z,81.56
2023-05-05T01:58:07.984Z,81.82
2023-05-05T02:00:36.874Z,82.05
2023-05-05T02:17:43.996Z,81.20
2023-05-05T02:20:14.882Z,81.38
2023-05-05T02:22:43.289Z,81.30
2023-05-05T02:25:12.485Z,81.16
2023-05-05T02:27:43.739Z,81.83
2023-05-05T02:30:16.383Z,81.32
2023-05-05T02:32:46.730Z,81.15
2023-05-05T02:35:20.167Z,81.05
2023-05-05T02:38:00.375Z,81.24
2023-05-05T02:40:32.032Z,81.05
2023-05-05T02:43:06.542Z,81.51
2023-05-05T02:45:35.144Z,81.22
2023-05-05T02:48:04.752Z,81.44
2023-05-05T02:50:36.539Z,81.51
2023-05-05T02:53:14.093Z,81.61
2023-05-05T02:55:52.300Z,81.73
2023-05-05T02:58:35.265Z,81.58
2023-05-05T03:01:27.004Z,81.39
2023-05-05T03:03:58.613Z,81.66
2023-05-05T03:06:29.331Z,81.49
2023-05-05T03:09:06.515Z,80.72
2023-05-05T03:11:46.670Z,80.01
2023-05-05T03:14:21.494Z,79.18
2023-05-05T03:16:52.427Z,78.20
2023-05-05T03:19:23.067Z,77.11
2023-05-05T03:21:55.018Z,76.20
2023-05-05T03:24:23.602Z,75.38
2023-05-05T03:26:58.535Z,75.20
2023-05-05T03:29:31.739Z,74.04
2023-05-05T03:32:01.950Z,72.66
2023-05-05T03:34:30.943Z,72.14
2023-05-05T03:36:59.828Z,71.69
2023-05-05T03:39:28.308Z,70.69
2023-05-05T03:41:57.612Z,69.18
2023-05-05T03:44:27.628Z,68.04
2023-05-05T03:46:57.326Z,66.69
2023-05-05T03:49:27.436Z,65.24
2023-05-05T03:51:56.550Z,62.35
2023-05-05T03:54:26.151Z,60.68
2023-05-05T03:56:55.969Z,59.04
2023-05-05T03:59:30.282Z,57.79
2023-05-05T04:02:00.883Z,56.75
2023-05-05T04:04:29.593Z,55.44
2023-05-05T04:06:58.794Z,54.10
2023-05-05T04:09:27.888Z,52.69
2023-05-05T04:11:57.596Z,51.85
2023-05-05T04:14:27.000Z,50.38
2023-05-05T04:16:55.492Z,49.32
2023-05-05T04:19:24.372Z,48.32
2023-05-05T04:22:18.962Z,48.02
2023-05-05T04:24:52.869Z,47.34
2023-05-05T04:27:47.364Z,46.95
2023-05-05T04:30:21.476Z,46.26
2023-05-05T04:33:44.124Z,45.88
2023-05-05T04:36:16.495Z,45.02
2023-05-05T04:39:12.318Z,44.05
2023-05-05T04:41:41.111Z,43.66
2023-05-05T04:44:13.580Z,43.36
2023-05-05T04:46:42.694Z,42.69
2023-05-05T04:50:03.375Z,42.32
2023-05-05T04:53:22.136Z,41.54
2023-05-05T04:55:51.722Z,40.30
2023-05-05T04:58:23.404Z,39.78
2023-05-05T05:05:25.489Z,37.76
2023-05-05T05:07:59.600Z,36.30
2023-05-05T05:10:28.696Z,36.16
2023-05-05T05:17:33.042Z,35.72
2023-05-05T05:20:05.170Z,35.68
2023-05-05T05:23:02.133Z,35.48
2023-05-05T05:25:38.014Z,35.36
2023-05-05T05:28:10.802Z,35.20
2023-05-05T05:30:53.908Z,34.70
2023-05-05T05:33:24.955Z,34.55
2023-05-05T05:35:54.762Z,35.00
2023-05-05T05:38:24.160Z,34.59
2023-05-05T05:41:24.589Z,34.57
2023-05-05T05:43:54.311Z,35.14
2023-05-05T05:47:41.139Z,35.09
2023-05-05T05:50:11.852Z,36.08
2023-05-05T05:52:40.740Z,35.77
2023-05-05T05:55:36.252Z,36.39
2023-05-05T05:58:04.745Z,37.65
2023-05-05T06:01:23.385Z,37.93
2023-05-05T06:03:51.825Z,37.68
2023-05-05T06:06:46.764Z,37.42
2023-05-05T06:09:15.957Z,36.61
2023-05-05T06:11:51.920Z,36.41
2023-05-05T06:14:48.756Z,36.56
2023-05-05T06:17:17.240Z,35.91
2023-05-05T06:19:48.586Z,35.54
2023-05-05T06:22:17.064Z,35.16
2023-05-05T06:24:47.187Z,35.20
2023-05-05T06:27:15.678Z,35.11
2023-05-05T06:29:43.937Z,35.47
2023-05-05T06:32:14.354Z,35.33
2023-05-05T06:34:45.205Z,36.02
2023-05-05T06:37:40.506Z,35.40
2023-05-05T06:40:10.588Z,35.16
2023-05-05T06:42:41.781Z,34.89
2023-05-05T06:45:39.534Z,34.69
2023-05-05T06:48:12.518Z,34.33
2023-05-05T06:51:08.805Z,34.55
2023-05-05T06:53:42.658Z,35.31
2023-05-05T06:56:37.459Z,35.18
2023-05-05T06:59:32.673Z,35.74
2023-05-05T07:02:05.246Z,36.10
2023-05-05T07:04:34.851Z,36.14
2023-05-05T07:07:10.190Z,35.59
2023-05-05T07:18:20.914Z,34.03
2023-05-05T07:20:49.499Z,33.47
2023-05-05T07:27:39.297Z,34.08
2023-05-05T07:30:13.950Z,33.60
2023-05-05T07:33:36.991Z,33.07
2023-05-05T07:36:05.768Z,32.19
2023-05-05T07:38:34.352Z,32.59
2023-05-05T07:41:02.835Z,33.03
2023-05-05T07:43:33.768Z,33.16
2023-05-05T07:46:05.391Z,34.33
2023-05-05T07:48:58.886Z,35.74
2023-05-05T07:51:28.186Z,35.95
2023-05-05T07:54:28.853Z,35.87
2023-05-05T07:57:47.999Z,35.63
2023-05-05T08:00:46.997Z,36.55
2023-05-05T08:07:23.369Z,38.07
2023-05-05T08:10:42.138Z,37.84
2023-05-05T08:13:12.252Z,38.16
2023-05-05T08:15:45.720Z,38.81
2023-05-05T08:19:14.568Z,39.30
2023-05-05T08:21:50.905Z,40.78
2023-05-05T08:24:19.389Z,41.46
2023-05-05T08:26:47.868Z,41.74
2023-05-05T08:29:19.210Z,40.74
2023-05-05T08:32:16.732Z,40.23
2023-05-05T08:34:45.153Z,39.94
2023-05-05T08:37:13.441Z,38.94
2023-05-05T08:39:41.910Z,39.66
2023-05-05T08:42:15.785Z,39.49
2023-05-05T08:45:47.171Z,39.22
2023-05-05T08:48:21.277Z,38.86
2023-05-05T08:50:59.511Z,38.37
2023-05-05T08:54:00.525Z,37.76
2023-05-05T08:56:34.345Z,37.73
2023-05-05T08:59:03.130Z,36.80
2023-05-05T09:01:34.189Z,37.68
2023-05-05T09:04:04.900Z,37.42
2023-05-05T09:06:39.110Z,38.61
2023-05-05T09:09:36.873Z,38.64
2023-05-05T09:12:05.656Z,38.74
2023-05-05T09:15:29.441Z,39.34
2023-05-05T09:17:58.676Z,38.57
2023-05-05T09:20:37.553Z,39.12
2023-05-05T09:23:21.809Z,39.15
2023-05-05T09:26:06.170Z,37.98
2023-05-05T09:28:53.995Z,37.78
2023-05-05T09:31:24.151Z,37.18
2023-05-05T09:34:19.425Z,36.63
2023-05-05T09:36:50.367Z,35.77
2023-05-05T09:39:20.678Z,37.28
2023-05-05T09:42:19.980Z,38.60
2023-05-05T09:45:19.852Z,39.03
2023-05-05T09:47:49.607Z,38.02
2023-05-05T09:50:19.430Z,37.21
2023-05-05T09:53:00.277Z,37.75
2023-05-05T09:55:31.697Z,37.31
2023-05-05T09:58:24.188Z,37.30
2023-05-05T10:01:00.190Z,36.79
2023-05-05T10:03:53.496Z,37.15
2023-05-05T10:06:41.541Z,37.42
2023-05-05T10:09:14.889Z,36.91
2023-05-05T10:12:14.027Z,37.10
2023-05-05T10:14:43.734Z,36.52
2023-05-05T10:17:58.346Z,36.05
2023-05-05T10:25:03.915Z,36.53
2023-05-05T10:28:00.707Z,35.87
2023-05-05T10:30:32.280Z,36.05
2023-05-05T10:33:45.869Z,36.37
2023-05-05T10:36:16.963Z,35.63
2023-05-05T10:40:01.516Z,35.80
2023-05-05T10:42:30.807Z,35.24
2023-05-05T10:45:00.472Z,34.38
2023-05-05T10:47:57.740Z,34.48
2023-05-05T10:50:42.027Z,34.29
2023-05-05T10:53:38.869Z,34.45
2023-05-05T10:56:32.678Z,35.51
2023-05-05T10:59:37.380Z,34.44
2023-05-05T11:02:59.006Z,34.51
2023-05-05T11:05:31.270Z,35.51
2023-05-05T11:08:25.875Z,35.10
2023-05-05T11:11:44.926Z,35.48
2023-05-05T11:14:23.371Z,35.82
2023-05-05T11:16:51.980Z,36.60
2023-05-05T11:19:53.683Z,36.02
2023-05-05T11:22:22.163Z,35.03
2023-05-05T11:24:50.645Z,33.97
2023-05-05T11:27:19.574Z,34.24
2023-05-05T11:30:09.337Z,35.13
2023-05-05T11:32:38.012Z,34.64
2023-05-05T11:35:07.611Z,35.37
2023-05-05T11:37:39.045Z,35.25
2023-05-05T11:40:23.462Z,34.95
2023-05-05T11:43:08.158Z,34.72
2023-05-05T11:45:37.566Z,34.70
2023-05-05T11:48:29.097Z,34.69
2023-05-05T11:51:47.944Z,34.79
2023-05-05T11:54:21.554Z,35.98
2023-05-05T11:57:05.796Z,35.52
2023-05-05T11:59:50.235Z,35.52
2023-05-05T12:02:20.145Z,35.36
2023-05-05T12:04:51.036Z,35.53
2023-05-05T12:07:28.285Z,35.06
2023-05-05T12:09:57.235Z,35.59
2023-05-05T12:12:41.243Z,34.97
2023-05-05T12:15:10.068Z,35.64
2023-05-05T12:17:46.272Z,36.43
2023-05-05T12:20:15.368Z,35.88
2023-05-05T12:22:45.172Z,35.94
2023-05-05T12:25:41.909Z,35.45
2023-05-05T12:28:14.741Z,36.42
2023-05-05T12:31:35.419Z,37.28
2023-05-05T12:34:10.122Z,36.25
2023-05-05T12:36:40.242Z,35.66
2023-05-05T12:39:09.044Z,37.19
2023-05-05T12:41:38.032Z,36.60
2023-05-05T12:44:08.251Z,37.01
2023-05-05T12:47:05.806Z,36.62
2023-05-05T12:49:49.757Z,37.49
2023-05-05T12:53:10.533Z,37.51
2023-05-05T12:56:27.467Z,36.48
2023-05-05T12:59:49.298Z,35.98
2023-05-05T13:02:17.897Z,36.59
2023-05-05T13:05:12.465Z,37.15
2023-05-05T13:07:52.805Z,38.21
2023-05-05T13:10:22.229Z,38.89
2023-05-05T13:12:52.528Z,38.58
2023-05-05T13:15:49.790Z,38.79
2023-05-05T13:18:46.496Z,39.15
2023-05-05T13:21:17.187Z,39.01
2023-05-05T13:23:51.091Z,39.59
2023-05-05T13:26:21.000Z,40.02
2023-05-05T13:28:52.754Z,40.56
2023-05-05T13:31:22.079Z,40.67
2023-05-05T13:33:51.600Z,41.28
2023-05-05T13:36:27.619Z,41.77
2023-05-05T13:38:57.330Z,41.08
2023-05-05T13:41:27.860Z,41.10
2023-05-05T13:44:23.370Z,41.68
2023-05-05T13:46:51.737Z,41.86
2023-05-05T13:49:20.439Z,42.11
2023-05-05T13:52:44.308Z,42.47
2023-05-05T13:55:38.688Z,42.68
2023-05-05T13:58:13.032Z,42.80
2023-05-05T14:00:41.416Z,43.30
2023-05-05T14:03:09.976Z,43.89
2023-05-05T14:05:42.651Z,44.06
2023-05-05T14:08:15.031Z,44.43
2023-05-05T14:10:46.080Z,44.49
2023-05-05T14:13:46.845Z,44.44
2023-05-05T14:16:15.754Z,44.61
2023-05-05T14:18:44.758Z,45.06
2023-05-05T14:21:13.365Z,44.65
2023-05-05T14:23:41.752Z,44.44
2023-05-05T14:26:10.030Z,44.05
2023-05-05T14:28:43.933Z,44.32
2023-05-05T14:31:12.614Z,44.31
2023-05-05T14:33:40.991Z,44.14
2023-05-05T14:36:11.007Z,44.11
2023-05-05T14:38:42.312Z,44.56
2023-05-05T14:41:11.247Z,44.28
2023-05-05T14:43:40.349Z,44.31
2023-05-05T14:46:09.077Z,43.79
2023-05-05T14:48:37.919Z,44.56
2023-05-05T14:51:06.501Z,44.36
2023-05-05T14:53:35.072Z,44.26
2023-05-05T14:56:04.788Z,44.16
2023-05-05T14:58:33.168Z,45.02
2023-05-05T15:01:01.843Z,45.10
2023-05-05T15:03:58.323Z,45.17
2023-05-05T15:06:28.411Z,46.04
2023-05-05T15:08:57.502Z,45.94
2023-05-05T15:11:28.017Z,46.07
2023-05-05T15:13:56.370Z,46.35
2023-05-05T15:16:25.135Z,46.61
2023-05-05T15:18:58.171Z,46.53
2023-05-05T15:21:32.702Z,46.68
2023-05-05T15:24:01.899Z,47.37
2023-05-05T15:26:30.388Z,47.15
2023-05-05T15:28:58.756Z,47.39
2023-05-05T15:31:31.362Z,47.97
2023-05-05T15:34:04.419Z,48.25
2023-05-05T15:36:34.877Z,48.89
2023-05-05T15:39:04.754Z,48.86
2023-05-05T15:41:35.172Z,48.85
2023-05-05T15:44:05.597Z,49.37
2023-05-05T15:46:39.515Z,49.33
2023-05-05T15:49:07.783Z,49.72
2023-05-05T15:51:38.625Z,50.36
2023-05-05T15:54:32.144Z,50.29
2023-05-05T15:57:05.475Z,50.38
2023-05-05T15:59:35.423Z,50.59
2023-05-05T16:02:30.443Z,50.81
2023-05-05T16:05:02.868Z,50.85
2023-05-05T16:07:33.084Z,51.08
2023-05-05T16:10:05.554Z,51.25
2023-05-05T16:12:33.873Z,51.52
2023-05-05T16:15:31.496Z,51.66
2023-05-05T16:17:59.869Z,51.97
2023-05-05T16:20:58.461Z,52.18
2023-05-05T16:23:28.992Z,52.53
2023-05-05T16:25:57.572Z,52.59
2023-05-05T16:28:27.489Z,53.14
2023-05-05T16:31:50.569Z,52.85
2023-05-05T16:34:19.233Z,53.66
2023-05-05T16:37:18.628Z,54.45
2023-05-05T16:39:47.930Z,55.60
2023-05-05T16:42:17.538Z,56.30
2023-05-05T16:44:46.015Z,56.46
2023-05-05T16:47:22.608Z,56.43
2023-05-05T16:49:52.710Z,56.52
2023-05-05T16:52:25.703Z,56.84
2023-05-05T16:54:56.842Z,57.10
2023-05-05T16:57:25.320Z,57.76
2023-05-05T16:59:56.559Z,59.18
2023-05-05T17:02:27.424Z,60.24
2023-05-05T17:04:57.257Z,60.32
2023-05-05T17:07:26.014Z,60.00
2023-05-05T17:09:57.914Z,60.44
2023-05-05T17:12:26.633Z,60.65
2023-05-05T17:14:55.025Z,59.68
2023-05-05T17:17:23.532Z,60.00
2023-05-05T17:19:56.184Z,60.81
2023-05-05T17:22:24.877Z,62.03
2023-05-05T17:24:53.555Z,63.06
2023-05-05T17:27:22.142Z,63.87
2023-05-05T17:29:50.608Z,65.80
2023-05-05T17:32:23.537Z,63.98
2023-05-05T17:34:56.784Z,63.64
2023-05-05T17:37:26.459Z,64.33
2023-05-05T17:39:55.994Z,63.69
2023-05-05T17:42:28.567Z,63.59
2023-05-05T17:44:56.844Z,65.94
2023-05-05T17:47:25.456Z,66.87
2023-05-05T17:49:56.191Z,67.50
2023-05-05T17:52:26.487Z,67.17
2023-05-05T17:54:54.969Z,67.45
2023-05-05T17:57:23.661Z,67.76
2023-05-05T17:59:53.950Z,68.41
2023-05-05T18:02:22.527Z,67.83
2023-05-05T18:04:51.040Z,69.04
2023-05-05T18:07:47.780Z,69.65
2023-05-05T18:10:16.990Z,69.45
2023-05-05T18:12:45.916Z,69.57
2023-05-05T18:15:14.446Z,69.21
2023-05-05T18:17:43.862Z,70.27
2023-05-05T18:20:13.050Z,70.69
2023-05-05T18:22:41.634Z,71.52
2023-05-05T18:25:15.604Z,72.35
2023-05-05T18:27:45.964Z,72.33
2023-05-05T18:30:41.176Z,72.69
2023-05-05T18:33:10.099Z,73.12
2023-05-05T18:35:43.248Z,73.32
2023-05-05T18:38:12.335Z,73.85
2023-05-05T18:40:43.793Z,73.94
2023-05-05T18:43:12.580Z,74.26
2023-05-05T18:45:40.987Z,73.78
2023-05-05T18:48:09.673Z,74.13
2023-05-05T18:50:38.872Z,72.47
2023-05-05T18:53:11.101Z,72.69
2023-05-05T18:55:39.585Z,73.57
2023-05-05T19:11:14.536Z,71.61
2023-05-05T19:13:41.468Z,70.81
2023-05-05T19:16:09.877Z,70.37
2023-05-05T19:18:37.011Z,70.18
2023-05-05T19:21:04.036Z,70.25
2023-05-05T19:23:31.721Z,70.15
2023-05-05T19:25:58.740Z,70.30
2023-05-05T19:28:25.795Z,69.88
2023-05-05T19:30:52.936Z,70.10
2023-05-05T19:33:20.390Z,69.60
2023-05-05T19:35:47.336Z,68.66
2023-05-05T19:38:14.484Z,68.86
2023-05-05T19:40:43.172Z,68.48
2023-05-05T19:43:10.223Z,67.98
2023-05-05T19:45:37.208Z,67.56
2023-05-05T19:48:05.166Z,67.35
2023-05-05T19:50:32.388Z,66.96
2023-05-05T19:52:59.431Z,66.53
2023-05-05T19:55:26.596Z,66.21
2023-05-05T19:57:53.629Z,66.34
2023-05-05T20:00:21.905Z,66.39
2023-05-05T20:02:49.044Z,66.09
2023-05-05T20:05:16.914Z,65.80
2023-05-05T20:07:45.905Z,65.71
2023-05-05T20:10:13.664Z,65.55
2023-05-05T20:12:47.122Z,65.20
2023-05-05T20:15:18.017Z,65.13
2023-05-05T20:17:46.270Z,64.63
2023-05-05T20:20:19.392Z,64.71
2023-05-05T20:22:47.955Z,64.81
2023-05-05T20:37:16.502Z,65.43
2023-05-05T20:39:48.000Z,66.03
2023-05-05T20:42:16.374Z,66.45
2023-05-05T20:44:46.286Z,66.21
2023-05-05T20:47:17.534Z,66.04
2023-05-05T20:49:46.216Z,65.87
2023-05-05T20:52:14.699Z,65.77
2023-05-05T20:54:44.094Z,65.77
2023-05-05T20:57:12.483Z,65.83
2023-05-05T20:59:40.857Z,65.31
2023-05-05T21:02:09.453Z,65.73
2023-05-05T21:04:38.739Z,65.99
2023-05-05T21:07:13.359Z,65.69
2023-05-05T21:09:42.960Z,65.43
2023-05-05T21:12:11.579Z,65.14
2023-05-05T21:15:06.366Z,65.03
2023-05-05T21:17:35.159Z,64.81
2023-05-05T21:20:08.759Z,64.68
2023-05-05T21:22:37.519Z,64.63
2023-05-05T21:25:25.049Z,64.50
2023-05-05T21:27:53.426Z,64.23
2023-05-05T21:30:24.764Z,64.60
2023-05-05T21:32:53.404Z,64.53
2023-05-05T21:35:21.928Z,64.03
2023-05-05T21:38:18.988Z,63.76
2023-05-05T21:40:47.468Z,63.73
2023-05-05T21:43:18.934Z,63.47
2023-05-05T21:45:47.185Z,63.59
2023-05-05T21:48:16.998Z,63.57
2023-05-05T22:02:11.870Z,62.90
2023-05-05T22:04:51.011Z,63.42
2023-05-05T22:07:18.194Z,63.77
2023-05-05T22:09:45.630Z,64.16
2023-05-05T22:12:12.942Z,64.82
2023-05-05T22:35:57.178Z,64.20
2023-05-05T22:38:25.965Z,64.88
2023-05-05T22:40:54.496Z,65.19
2023-05-05T22:43:49.695Z,65.43
2023-05-05T22:46:18.236Z,65.61
2023-05-05T22:48:47.085Z,65.58
2023-05-05T22:51:15.447Z,66.09
2023-05-05T22:53:43.813Z,66.42
2023-05-05T22:56:14.251Z,66.89
2023-05-05T22:58:42.748Z,67.69
2023-05-05T23:01:11.012Z,67.72
2023-05-05T23:03:39.270Z,68.30
2023-05-05T23:06:08.071Z,68.56
2023-05-05T23:08:36.849Z,68.85
2023-05-05T23:11:05.838Z,69.64
2023-05-05T23:13:34.623Z,69.50
2023-05-05T23:16:03.118Z,69.48
2023-05-05T23:18:31.383Z,69.91
2023-05-05T23:20:59.553Z,70.16
2023-05-05T23:23:29.035Z,70.22
2023-05-05T23:25:57.349Z,70.08
2023-05-05T23:47:20.663Z,68.60
2023-05-05T23:49:47.871Z,68.32
2023-05-05T23:52:15.198Z,68.73
2023-05-05T23:54:42.541Z,69.16
2023-05-05T23:57:10.386Z,69.18
2023-05-05T23:59:38.886Z,69.75
